Time;durP1;ratioP1;P1;durP2;ratioP2;P2;SDS_P1;SDS_P2;PMS_P1;PMS_P2;Temp;Humidity;BMP_temperature;BMP_pressure;BME280_temperature;BME280_humidity;BME280_pressure;Samples;Min_cycle;Max_cycle;Signal;HPM_P1;HPM_P2
2021/08/01 00:01:56;;;;;;;2.23;2.03;;;17.90;99.90;;;;;;5069804;28;20251;-72
2021/08/01 00:04:22;;;;;;;2.27;2.00;;;17.90;99.90;;;;;;5069810;28;20312;-72
2021/08/01 00:06:49;;;;;;;1.73;1.63;;;18.00;99.90;;;;;;5069849;28;20211;-72
2021/08/01 00:09:17;;;;;;;1.93;1.70;;;17.90;99.90;;;;;;5069890;28;20267;-72
2021/08/01 00:11:44;;;;;;;3.73;1.90;;;17.80;99.90;;;;;;5069601;28;20714;-72
2021/08/01 00:14:10;;;;;;;1.80;1.70;;;17.80;99.90;;;;;;5069653;28;20227;-72
2021/08/01 00:16:38;;;;;;;2.27;1.90;;;17.80;99.90;;;;;;5069455;28;20626;-72
2021/08/01 00:19:05;;;;;;;1.90;1.80;;;17.90;99.90;;;;;;5069728;28;20663;-72
2021/08/01 00:21:31;;;;;;;1.70;1.60;;;17.80;99.90;;;;;;5069700;28;20253;-72
2021/08/01 00:23:58;;;;;;;1.73;1.60;;;17.90;99.90;;;;;;5069685;28;20285;-72
2021/08/01 00:26:24;;;;;;;2.30;1.63;;;17.90;99.90;;;;;;5069662;28;20211;-72
2021/08/01 00:28:51;;;;;;;1.90;1.80;;;18.00;99.90;;;;;;5069297;28;20253;-72
2021/08/01 00:31:18;;;;;;;2.30;2.10;;;17.90;99.90;;;;;;5069409;28;20620;-72
2021/08/01 00:33:46;;;;;;;1.90;1.70;;;17.90;99.90;;;;;;5069374;28;20239;-72
2021/08/01 00:36:12;;;;;;;1.97;1.87;;;18.00;99.90;;;;;;5069137;28;20274;-72
2021/08/01 00:38:39;;;;;;;2.10;2.00;;;18.00;99.90;;;;;;5069278;28;20293;-72
2021/08/01 00:41:05;;;;;;;3.43;2.00;;;18.00;99.90;;;;;;5069024;28;20608;-72
2021/08/01 00:43:33;;;;;;;1.90;1.80;;;18.00;99.90;;;;;;5068864;28;20729;-72
2021/08/01 00:46:00;;;;;;;2.17;1.97;;;17.90;99.90;;;;;;5066356;28;20211;-73
2021/08/01 00:48:26;;;;;;;2.30;1.73;;;18.00;99.90;;;;;;5068511;28;20211;-73
2021/08/01 00:50:57;;;;;;;1.90;1.80;;;18.00;99.90;;;;;;5068208;28;20199;-73
2021/08/01 00:53:24;;;;;;;4.10;2.00;;;17.90;99.90;;;;;;5068587;28;20214;-72
2021/08/01 00:55:50;;;;;;;3.30;2.00;;;17.90;99.90;;;;;;5068481;28;20339;-72
2021/08/01 00:58:17;;;;;;;2.33;2.23;;;17.90;99.90;;;;;;5068423;28;20261;-72
2021/08/01 01:01:10;;;;;;;2.57;2.37;;;17.70;99.90;;;;;;5068049;28;20228;-71
2021/08/01 01:03:54;;;;;;;2.17;1.70;;;17.60;99.90;;;;;;5049979;28;20215;-71
2021/08/01 01:06:34;;;;;;;2.07;1.80;;;17.50;99.90;;;;;;5048610;28;20254;-71
2021/08/01 01:09:04;;;;;;;2.50;1.60;;;17.50;99.90;;;;;;5048418;28;20196;-71
2021/08/01 01:11:36;;;;;;;2.00;1.90;;;17.40;99.90;;;;;;5051079;28;20192;-71
2021/08/01 01:14:03;;;;;;;2.00;1.90;;;17.50;99.90;;;;;;5083404;28;20272;-71
2021/08/01 01:16:38;;;;;;;2.00;1.90;;;17.50;99.90;;;;;;5068262;28;20265;-71
2021/08/01 01:19:05;;;;;;;3.27;2.50;;;17.50;99.90;;;;;;5068465;28;20257;-71
2021/08/01 01:21:47;;;;;;;2.67;2.03;;;17.50;99.90;;;;;;5068194;28;20207;-71
2021/08/01 01:24:16;;;;;;;2.10;2.00;;;17.50;99.90;;;;;;5068418;28;20650;-71
2021/08/01 01:26:51;;;;;;;2.43;1.80;;;17.60;99.90;;;;;;5068058;28;20223;-71
2021/08/01 01:29:22;;;;;;;2.03;1.90;;;17.60;99.90;;;;;;5067682;28;20191;-71
2021/08/01 01:31:58;;;;;;;2.57;2.20;;;17.70;99.90;;;;;;5068523;28;20257;-70
2021/08/01 01:34:30;;;;;;;2.00;1.90;;;17.60;99.90;;;;;;5068163;28;20653;-71
2021/08/01 01:37:01;;;;;;;2.37;2.10;;;17.40;99.90;;;;;;5068116;28;20225;-70
2021/08/01 01:39:30;;;;;;;4.67;2.10;;;17.40;99.90;;;;;;5068602;28;20191;-71
2021/08/01 01:41:58;;;;;;;3.23;2.10;;;17.20;99.90;;;;;;5068037;28;20658;-71
2021/08/01 01:44:25;;;;;;;2.20;2.10;;;17.20;99.90;;;;;;5068365;28;20199;-72
2021/08/01 01:46:53;;;;;;;2.10;2.00;;;17.30;99.90;;;;;;5068226;28;20199;-73
2021/08/01 01:49:19;;;;;;;2.10;2.00;;;17.40;99.90;;;;;;5067911;28;20203;-72
2021/08/01 01:51:47;;;;;;;2.23;1.90;;;17.40;99.90;;;;;;5068323;28;20261;-72
2021/08/01 01:54:16;;;;;;;2.00;1.90;;;17.30;99.90;;;;;;5068213;28;20257;-73
2021/08/01 01:56:43;;;;;;;2.47;2.27;;;17.30;99.90;;;;;;5068358;28;20223;-72
2021/08/01 01:59:12;;;;;;;3.93;2.13;;;17.40;99.90;;;;;;5071905;28;20735;-71
2021/08/01 02:01:39;;;;;;;2.37;2.13;;;17.30;99.90;;;;;;5072479;28;20207;-72
2021/08/01 02:04:06;;;;;;;2.70;2.50;;;17.20;99.90;;;;;;5072956;28;20203;-72
2021/08/01 02:06:34;;;;;;;2.37;2.17;;;17.20;99.90;;;;;;5072286;28;20242;-73
2021/08/01 02:09:08;;;;;;;2.30;2.20;;;17.00;99.90;;;;;;5071835;28;20199;-73
2021/08/01 02:11:42;;;;;;;2.40;2.10;;;17.00;99.90;;;;;;5072356;28;20195;-73
2021/08/01 02:14:15;;;;;;;2.20;2.10;;;16.90;99.90;;;;;;5072027;28;20240;-73
2021/08/01 02:16:46;;;;;;;3.10;2.60;;;16.90;99.90;;;;;;5072112;28;20628;-73
2021/08/01 02:19:14;;;;;;;2.27;2.17;;;16.90;99.90;;;;;;5071767;28;20231;-72
2021/08/01 02:21:43;;;;;;;2.23;2.13;;;17.00;99.90;;;;;;5071935;28;20284;-72
2021/08/01 02:24:11;;;;;;;2.33;2.13;;;17.10;99.90;;;;;;5071848;28;20568;-72
2021/08/01 02:26:40;;;;;;;2.80;2.27;;;17.10;99.90;;;;;;5071900;28;20207;-72
2021/08/01 02:29:08;;;;;;;2.67;2.40;;;17.30;99.90;;;;;;5071632;28;20437;-72
2021/08/01 02:31:35;;;;;;;2.53;2.33;;;17.30;99.90;;;;;;5071679;28;20257;-71
2021/08/01 02:34:02;;;;;;;2.87;2.20;;;17.10;99.90;;;;;;5071594;28;20250;-71
2021/08/01 02:36:29;;;;;;;2.40;2.20;;;17.10;99.90;;;;;;5071526;28;20267;-71
2021/08/01 02:38:58;;;;;;;2.97;2.67;;;17.00;99.90;;;;;;5071493;28;20261;-72
2021/08/01 02:41:29;;;;;;;2.63;2.43;;;17.00;99.90;;;;;;5071512;28;20207;-72
2021/08/01 02:44:00;;;;;;;2.60;2.40;;;16.80;99.90;;;;;;5071463;28;20214;-72
2021/08/01 02:46:30;;;;;;;2.93;2.60;;;16.70;99.90;;;;;;5071343;28;20574;-72
2021/08/01 02:48:59;;;;;;;2.97;2.77;;;16.70;99.90;;;;;;5071343;28;20207;-72
2021/08/01 02:51:28;;;;;;;2.57;2.47;;;16.60;99.90;;;;;;5071410;28;20501;-72
2021/08/01 02:53:57;;;;;;;3.00;2.80;;;16.60;99.90;;;;;;5071451;28;20208;-72
2021/08/01 02:56:26;;;;;;;2.87;2.60;;;16.60;99.90;;;;;;5071316;28;20235;-72
2021/08/01 02:58:54;;;;;;;2.83;2.63;;;16.70;99.90;;;;;;5071223;28;20269;-71
2021/08/01 03:01:22;;;;;;;2.70;2.50;;;16.70;99.90;;;;;;5071416;28;20239;-71
2021/08/01 03:03:50;;;;;;;2.77;2.50;;;16.80;99.90;;;;;;5071174;28;20245;-71
2021/08/01 03:06:17;;;;;;;3.13;2.60;;;16.80;99.90;;;;;;5071068;28;20199;-71
2021/08/01 03:08:44;;;;;;;3.20;3.00;;;16.80;99.90;;;;;;5070960;28;20548;-72
2021/08/01 03:11:19;;;;;;;3.10;2.87;;;16.70;99.90;;;;;;5070756;28;20246;-72
2021/08/01 03:13:46;;;;;;;3.13;2.90;;;16.60;99.90;;;;;;5071089;28;20195;-72
2021/08/01 03:16:13;;;;;;;3.13;2.33;;;16.50;99.90;;;;;;5070818;28;20877;-71
2021/08/01 03:18:41;;;;;;;3.10;2.53;;;16.50;99.90;;;;;;5070827;28;20665;-71
2021/08/01 03:21:07;;;;;;;3.90;2.40;;;16.60;99.90;;;;;;5070749;28;20212;-71
2021/08/01 03:23:34;;;;;;;3.47;2.70;;;16.50;99.90;;;;;;5070800;28;20265;-71
2021/08/01 03:26:00;;;;;;;3.43;2.90;;;16.50;99.90;;;;;;5070723;28;20660;-71
2021/08/01 03:28:27;;;;;;;3.20;2.77;;;16.30;99.90;;;;;;5070824;28;20249;-71
2021/08/01 03:30:54;;;;;;;3.07;2.87;;;16.30;99.90;;;;;;5070479;28;20212;-71
2021/08/01 03:33:20;;;;;;;3.10;2.80;;;16.30;99.90;;;;;;5070738;28;20218;-71
2021/08/01 03:35:48;;;;;;;4.70;3.03;;;16.40;99.90;;;;;;5070286;28;20231;-72
2021/08/01 03:38:16;;;;;;;3.90;2.97;;;16.30;99.90;;;;;;5070603;28;20207;-72
2021/08/01 03:40:42;;;;;;;2.87;2.67;;;16.30;99.90;;;;;;5070620;28;20290;-72
2021/08/01 03:43:09;;;;;;;3.17;2.87;;;16.20;99.90;;;;;;5070368;28;20204;-72
2021/08/01 03:45:36;;;;;;;3.57;3.27;;;16.20;99.90;;;;;;5070483;28;20208;-72
2021/08/01 03:48:02;;;;;;;3.50;3.20;;;16.10;99.90;;;;;;5070147;28;20221;-72
2021/08/01 03:50:29;;;;;;;3.30;3.10;;;16.10;99.90;;;;;;5070319;28;20257;-72
2021/08/01 03:52:57;;;;;;;2.97;2.73;;;16.10;99.90;;;;;;5069881;28;20738;-72
2021/08/01 03:55:23;;;;;;;5.03;3.10;;;16.20;99.90;;;;;;5070126;28;20324;-72
2021/08/01 03:57:50;;;;;;;3.27;2.90;;;16.10;99.90;;;;;;5069804;28;20705;-72
2021/08/01 04:00:17;;;;;;;4.10;3.20;;;16.10;99.90;;;;;;5070113;28;20234;-72
2021/08/01 04:02:43;;;;;;;3.37;3.10;;;16.20;99.90;;;;;;5070302;28;20215;-72
2021/08/01 04:05:11;;;;;;;3.63;2.80;;;16.20;99.90;;;;;;5070089;28;20211;-72
2021/08/01 04:07:37;;;;;;;3.00;2.70;;;16.40;99.90;;;;;;5070061;28;20210;-71
2021/08/01 04:10:06;;;;;;;3.07;2.80;;;16.50;99.90;;;;;;5069680;28;20235;-71
2021/08/01 04:12:33;;;;;;;3.10;2.83;;;16.60;99.90;;;;;;5069614;28;20688;-71
2021/08/01 04:15:00;;;;;;;3.30;3.00;;;16.70;99.90;;;;;;5069380;28;20203;-71
2021/08/01 04:17:29;;;;;;;3.30;3.10;;;16.60;99.90;;;;;;5069877;28;20705;-72
2021/08/01 04:19:55;;;;;;;4.67;2.90;;;16.60;99.90;;;;;;5068907;28;20659;-72
2021/08/01 04:22:22;;;;;;;3.60;2.87;;;16.70;99.90;;;;;;5069880;28;20234;-72
2021/08/01 04:24:48;;;;;;;2.80;2.70;;;16.60;99.90;;;;;;5069378;28;20204;-73
2021/08/01 04:27:16;;;;;;;3.33;3.03;;;16.50;99.90;;;;;;5069745;28;20207;-73
2021/08/01 04:29:43;;;;;;;3.30;3.07;;;16.60;99.90;;;;;;5069620;28;20268;-73
2021/08/01 04:32:10;;;;;;;3.47;3.17;;;16.60;99.90;;;;;;5069713;28;20210;-74
2021/08/01 04:34:36;;;;;;;2.93;2.83;;;16.60;99.90;;;;;;5069553;28;20281;-73
2021/08/01 04:37:03;;;;;;;3.20;2.90;;;16.70;99.90;;;;;;5069145;28;20238;-73
2021/08/01 04:39:30;;;;;;;3.37;2.90;;;16.70;99.90;;;;;;5069628;28;20264;-72
2021/08/01 04:41:57;;;;;;;2.90;2.70;;;16.80;99.90;;;;;;5069067;28;20265;-72
2021/08/01 04:44:24;;;;;;;3.13;2.80;;;16.80;99.90;;;;;;5069407;28;20776;-72
2021/08/01 04:46:51;;;;;;;3.30;3.00;;;16.90;99.90;;;;;;5068944;28;20208;-72
2021/08/01 04:49:18;;;;;;;3.23;2.93;;;16.90;99.90;;;;;;5068943;28;20714;-73
2021/08/01 04:51:44;;;;;;;3.97;3.43;;;16.80;99.90;;;;;;5068931;28;20253;-71
2021/08/01 04:54:11;;;;;;;3.20;2.90;;;16.80;99.90;;;;;;5068616;28;20208;-72
2021/08/01 04:56:37;;;;;;;3.27;3.07;;;16.90;99.90;;;;;;5068809;28;20235;-70
2021/08/01 04:59:04;;;;;;;3.30;3.00;;;16.80;99.90;;;;;;5068447;28;20720;-72
2021/08/01 05:01:32;;;;;;;3.10;2.90;;;16.90;99.90;;;;;;5068666;28;20224;-72
2021/08/01 05:03:58;;;;;;;3.33;3.13;;;16.80;99.90;;;;;;5058819;28;20270;-72
2021/08/01 05:06:25;;;;;;;3.57;3.27;;;16.70;99.90;;;;;;5045153;28;20212;-72
2021/08/01 05:08:52;;;;;;;3.50;3.30;;;16.80;99.90;;;;;;5045107;28;20741;-72
2021/08/01 05:11:18;;;;;;;3.93;3.20;;;16.80;99.90;;;;;;5045341;28;20239;-72
2021/08/01 05:13:45;;;;;;;3.20;3.00;;;16.90;99.90;;;;;;5045117;28;20248;-72
2021/08/01 05:16:16;;;;;;;5.27;2.80;;;17.00;99.90;;;;;;5044569;28;21011;-74
2021/08/01 05:18:44;;;;;;;4.43;4.20;;;17.10;99.90;;;;;;5044828;28;20207;-74
2021/08/01 05:21:11;;;;;;;3.77;3.47;;;17.20;99.90;;;;;;5044699;28;20227;-74
2021/08/01 05:23:38;;;;;;;5.53;3.47;;;17.20;99.90;;;;;;5044743;28;20204;-74
2021/08/01 05:26:04;;;;;;;3.30;3.10;;;17.20;99.90;;;;;;5062746;28;20203;-74
2021/08/01 05:28:31;;;;;;;3.73;3.40;;;17.20;99.90;;;;;;5064834;28;20280;-75
2021/08/01 05:30:58;;;;;;;3.73;3.50;;;17.10;99.90;;;;;;5064171;28;20264;-75
2021/08/01 05:33:24;;;;;;;3.63;3.33;;;17.20;99.90;;;;;;5064446;28;20257;-74
2021/08/01 05:35:52;;;;;;;3.50;3.30;;;17.30;99.90;;;;;;5063774;28;20648;-74
2021/08/01 05:38:19;;;;;;;3.40;3.20;;;17.30;99.90;;;;;;5064506;28;20278;-74
2021/08/01 05:40:46;;;;;;;3.90;3.60;;;17.30;99.90;;;;;;5064648;28;20203;-74
2021/08/01 05:43:13;;;;;;;3.70;3.20;;;17.40;99.90;;;;;;5064426;28;20207;-75
2021/08/01 05:45:39;;;;;;;3.97;3.67;;;17.50;99.90;;;;;;5061723;28;20265;-72
2021/08/01 05:48:10;;;;;;;3.60;3.27;;;17.30;99.90;;;;;;5064218;28;20610;-72
2021/08/01 05:50:37;;;;;;;4.43;3.37;;;17.10;99.90;;;;;;5062684;28;20203;-72
2021/08/01 05:53:04;;;;;;;4.10;3.60;;;17.20;99.90;;;;;;5063135;28;20540;-72
2021/08/01 05:55:31;;;;;;;3.83;3.53;;;17.00;99.90;;;;;;5064041;28;20203;-73
2021/08/01 05:57:58;;;;;;;3.77;3.47;;;17.00;99.90;;;;;;5063473;28;20313;-73
2021/08/01 06:00:27;;;;;;;3.90;3.53;;;17.10;99.90;;;;;;5063811;28;20235;-72
2021/08/01 06:02:54;;;;;;;3.80;3.60;;;17.00;99.90;;;;;;5062964;28;20771;-72
2021/08/01 06:05:21;;;;;;;4.10;3.90;;;17.10;99.90;;;;;;5064447;28;20242;-72
2021/08/01 06:07:47;;;;;;;3.73;3.37;;;17.20;99.90;;;;;;5064810;28;20261;-73
2021/08/01 06:10:15;;;;;;;3.20;3.00;;;17.20;99.90;;;;;;5064264;28;20271;-72
2021/08/01 06:12:42;;;;;;;3.57;3.27;;;17.20;99.90;;;;;;5064518;28;20207;-72
2021/08/01 06:15:09;;;;;;;3.90;3.53;;;17.20;99.90;;;;;;5063902;28;20670;-72
2021/08/01 06:17:36;;;;;;;3.53;3.33;;;17.20;99.90;;;;;;5063992;28;20227;-75
2021/08/01 06:20:03;;;;;;;3.73;3.43;;;17.20;99.90;;;;;;5063786;28;20473;-74
2021/08/01 06:22:30;;;;;;;4.40;4.03;;;17.30;99.90;;;;;;5064165;28;20215;-72
2021/08/01 06:24:56;;;;;;;4.00;3.60;;;17.40;99.90;;;;;;5064231;28;20269;-72
2021/08/01 06:27:24;;;;;;;3.10;2.90;;;17.50;99.90;;;;;;5063875;28;20223;-72
2021/08/01 06:29:51;;;;;;;4.10;3.80;;;17.50;99.90;;;;;;5063911;28;20203;-72
2021/08/01 06:32:17;;;;;;;3.50;3.20;;;17.50;99.90;;;;;;5065669;28;20207;-72
2021/08/01 06:34:44;;;;;;;3.97;3.30;;;17.40;99.90;;;;;;5066257;28;20227;-72
2021/08/01 06:37:11;;;;;;;2.80;2.67;;;17.50;99.90;;;;;;5066157;28;20275;-72
2021/08/01 06:39:37;;;;;;;3.80;3.00;;;17.60;99.90;;;;;;5066422;28;20237;-72
2021/08/01 06:42:04;;;;;;;3.53;3.20;;;17.70;99.90;;;;;;5066698;28;20204;-73
2021/08/01 06:44:32;;;;;;;5.07;3.00;;;17.80;99.90;;;;;;5069623;28;20203;-72
2021/08/01 06:46:59;;;;;;;3.47;3.17;;;17.80;99.90;;;;;;5069981;28;20726;-72
2021/08/01 06:49:25;;;;;;;3.03;2.83;;;17.80;99.90;;;;;;5071374;28;20212;-72
2021/08/01 06:51:52;;;;;;;3.77;3.07;;;17.70;99.90;;;;;;5071648;28;20617;-72
2021/08/01 06:54:18;;;;;;;3.80;3.30;;;17.70;99.90;;;;;;5071355;28;20207;-72
2021/08/01 06:56:45;;;;;;;2.90;2.80;;;17.60;99.90;;;;;;5070950;28;20817;-72
2021/08/01 06:59:12;;;;;;;3.27;3.07;;;17.70;99.90;;;;;;5071012;28;20273;-72
2021/08/01 07:01:40;;;;;;;4.30;3.10;;;17.80;99.90;;;;;;5071275;28;20214;-72
2021/08/01 07:04:07;;;;;;;3.50;3.20;;;17.90;99.90;;;;;;5070985;28;20210;-72
2021/08/01 07:06:34;;;;;;;3.80;3.10;;;18.00;99.90;;;;;;5070920;28;20235;-72
2021/08/01 07:09:00;;;;;;;3.20;2.77;;;18.00;99.90;;;;;;5070988;28;20257;-73
2021/08/01 07:11:27;;;;;;;4.67;2.83;;;18.20;99.90;;;;;;5071211;28;20195;-72
2021/08/01 07:13:54;;;;;;;4.67;2.90;;;18.00;99.90;;;;;;5071110;28;20285;-72
2021/08/01 07:16:20;;;;;;;3.37;3.17;;;17.80;99.90;;;;;;5070957;28;20697;-72
2021/08/01 07:18:48;;;;;;;4.17;2.93;;;18.00;99.90;;;;;;5070937;28;20199;-72
2021/08/01 07:21:15;;;;;;;3.47;3.27;;;18.10;99.90;;;;;;5070350;28;20212;-73
2021/08/01 07:23:41;;;;;;;4.30;3.10;;;18.20;99.90;;;;;;5070945;28;20199;-73
2021/08/01 07:26:08;;;;;;;3.50;3.30;;;18.10;99.90;;;;;;5070594;28;20212;-72
2021/08/01 07:28:35;;;;;;;4.40;3.13;;;18.10;99.90;;;;;;5070803;28;20269;-72
2021/08/01 07:31:02;;;;;;;3.10;2.90;;;18.00;99.90;;;;;;5070503;28;20569;-72
2021/08/01 07:33:29;;;;;;;3.00;2.77;;;18.10;99.90;;;;;;5070514;28;20730;-72
2021/08/01 07:35:57;;;;;;;3.37;2.87;;;18.20;99.90;;;;;;5070420;28;20208;-73
2021/08/01 07:38:25;;;;;;;3.93;3.20;;;18.10;99.90;;;;;;5070437;28;20239;-72
2021/08/01 07:40:51;;;;;;;3.33;3.03;;;18.10;99.90;;;;;;5070668;28;20296;-72
2021/08/01 07:43:18;;;;;;;3.40;2.90;;;18.10;99.90;;;;;;5070040;28;20257;-72
2021/08/01 07:45:44;;;;;;;3.93;3.53;;;18.00;99.90;;;;;;5070104;28;20681;-72
2021/08/01 07:48:11;;;;;;;3.23;2.93;;;18.00;99.90;;;;;;5070216;28;20257;-72
2021/08/01 07:50:38;;;;;;;3.73;3.50;;;18.00;99.90;;;;;;5069944;28;20778;-72
2021/08/01 07:53:06;;;;;;;3.20;2.90;;;18.00;99.90;;;;;;5070024;28;20635;-73
2021/08/01 07:55:32;;;;;;;4.00;3.70;;;18.00;99.90;;;;;;5068947;28;20370;-72
2021/08/01 07:58:02;;;;;;;3.20;2.90;;;18.10;99.90;;;;;;5069686;28;20288;-73
2021/08/01 08:00:29;;;;;;;2.90;2.70;;;18.20;99.90;;;;;;5070223;28;20237;-73
2021/08/01 08:02:56;;;;;;;3.37;3.17;;;18.20;99.90;;;;;;5070058;28;20203;-73
2021/08/01 08:05:22;;;;;;;3.10;2.90;;;18.30;99.90;;;;;;5069550;28;20300;-72
2021/08/01 08:07:49;;;;;;;3.63;3.33;;;18.30;99.90;;;;;;5069710;28;20207;-73
2021/08/01 08:10:17;;;;;;;3.83;3.13;;;18.30;99.90;;;;;;5069257;28;20352;-72
2021/08/01 08:12:44;;;;;;;3.40;3.10;;;18.40;99.90;;;;;;5069796;28;20418;-72
2021/08/01 08:15:12;;;;;;;3.03;2.83;;;18.60;99.90;;;;;;5069485;28;20661;-73
2021/08/01 08:17:39;;;;;;;2.97;2.70;;;18.70;99.90;;;;;;5069704;28;20235;-73
2021/08/01 08:20:07;;;;;;;3.27;3.00;;;18.90;99.90;;;;;;5069214;28;21045;-72
2021/08/01 08:22:34;;;;;;;3.03;2.83;;;18.90;99.90;;;;;;5069623;28;20211;-72
2021/08/01 08:25:01;;;;;;;3.10;2.90;;;19.00;99.90;;;;;;5069330;28;20237;-73
2021/08/01 08:27:29;;;;;;;6.23;3.70;;;19.10;99.90;;;;;;5069458;28;20484;-72
2021/08/01 08:29:55;;;;;;;3.60;2.90;;;19.00;99.90;;;;;;5069472;28;20207;-73
2021/08/01 08:32:22;;;;;;;3.90;3.50;;;18.80;99.90;;;;;;5065759;28;20257;-73
2021/08/01 08:34:48;;;;;;;3.43;3.10;;;18.90;99.90;;;;;;5069349;28;20464;-73
2021/08/01 08:37:15;;;;;;;4.07;2.80;;;18.90;99.90;;;;;;5068932;28;20796;-73
2021/08/01 08:39:42;;;;;;;4.40;2.60;;;18.90;99.90;;;;;;5069240;28;20207;-73
2021/08/01 08:42:09;;;;;;;2.97;2.77;;;19.00;99.90;;;;;;5069099;28;20203;-73
2021/08/01 08:44:37;;;;;;;3.30;3.10;;;18.90;99.90;;;;;;5069296;28;20203;-72
2021/08/01 08:47:05;;;;;;;3.03;2.83;;;18.90;99.90;;;;;;5068803;28;20211;-73
2021/08/01 08:49:34;;;;;;;3.00;2.80;;;19.00;99.90;;;;;;5069143;28;20204;-72
2021/08/01 08:52:00;;;;;;;3.00;2.80;;;19.00;99.90;;;;;;5068581;28;20668;-73
2021/08/01 08:54:38;;;;;;;3.10;2.80;;;19.10;99.90;;;;;;5068832;28;20619;-72
2021/08/01 08:57:13;;;;;;;2.70;2.50;;;19.10;99.90;;;;;;5068524;28;20289;-73
2021/08/01 08:59:41;;;;;;;3.90;3.00;;;19.20;99.90;;;;;;5068892;28;20261;-73
2021/08/01 09:02:11;;;;;;;3.10;2.90;;;19.40;99.90;;;;;;5068823;28;20616;-72
2021/08/01 09:04:37;;;;;;;3.50;3.20;;;19.50;99.90;;;;;;5068688;28;20645;-72
2021/08/01 09:07:04;;;;;;;4.97;2.63;;;19.70;99.90;;;;;;5068520;28;20284;-72
2021/08/01 09:09:31;;;;;;;2.40;2.20;;;19.90;99.90;;;;;;5068645;28;20328;-73
2021/08/01 09:11:58;;;;;;;3.40;2.50;;;19.80;99.90;;;;;;5068861;28;20199;-73
2021/08/01 09:14:24;;;;;;;3.23;2.40;;;19.70;99.90;;;;;;5068704;28;20760;-72
2021/08/01 09:16:53;;;;;;;2.70;2.50;;;19.60;99.90;;;;;;5068543;28;20218;-72
2021/08/01 09:19:26;;;;;;;2.83;2.63;;;19.60;99.90;;;;;;5068625;28;20215;-72
2021/08/01 09:21:54;;;;;;;5.33;4.17;;;19.70;99.90;;;;;;5068808;28;20248;-73
2021/08/01 09:24:21;;;;;;;3.73;2.90;;;19.80;99.90;;;;;;5068357;28;20207;-73
2021/08/01 09:26:51;;;;;;;4.63;3.17;;;19.70;99.90;;;;;;5068453;28;20266;-73
2021/08/01 09:29:18;;;;;;;2.83;2.40;;;19.80;99.90;;;;;;5068706;28;20290;-73
2021/08/01 09:31:45;;;;;;;3.17;2.87;;;19.80;99.90;;;;;;5068606;28;20226;-73
2021/08/01 09:34:25;;;;;;;3.53;2.60;;;19.70;99.90;;;;;;5068024;28;20308;-73
2021/08/01 09:37:02;;;;;;;2.80;2.60;;;19.90;99.90;;;;;;5068335;28;20207;-72
2021/08/01 09:39:30;;;;;;;2.60;2.40;;;19.80;99.90;;;;;;5068331;28;20202;-73
2021/08/01 09:42:02;;;;;;;3.00;2.40;;;19.90;99.90;;;;;;5068482;28;20284;-73
2021/08/01 09:44:29;;;;;;;2.67;2.47;;;19.80;99.90;;;;;;5068017;28;20653;-73
2021/08/01 09:46:57;;;;;;;2.67;2.50;;;19.80;99.90;;;;;;5068401;28;20238;-73
2021/08/01 09:49:26;;;;;;;2.83;2.60;;;19.80;99.90;;;;;;5068130;28;20210;-73
2021/08/01 09:51:54;;;;;;;2.60;2.40;;;19.80;99.90;;;;;;5068393;28;20207;-73
2021/08/01 09:54:22;;;;;;;2.63;2.53;;;19.90;99.90;;;;;;5068084;28;20548;-73
2021/08/01 09:56:57;;;;;;;2.40;2.23;;;19.90;99.90;;;;;;5067794;28;20636;-73
2021/08/01 09:59:26;;;;;;;2.77;2.57;;;19.90;99.90;;;;;;5067950;28;20277;-73
2021/08/01 10:01:55;;;;;;;3.57;2.70;;;20.00;99.90;;;;;;5068213;28;20286;-72
2021/08/01 10:04:25;;;;;;;2.63;2.50;;;20.00;99.90;;;;;;5067866;28;20766;-73
2021/08/01 10:07:02;;;;;;;4.20;2.40;;;20.00;99.90;;;;;;5067646;28;20208;-73
2021/08/01 10:09:28;;;;;;;2.20;2.10;;;19.90;99.90;;;;;;5067647;28;20249;-73
2021/08/01 10:11:56;;;;;;;2.83;2.50;;;19.90;99.90;;;;;;5068241;28;20227;-72
2021/08/01 10:14:23;;;;;;;2.57;2.37;;;20.00;99.90;;;;;;5067688;28;20261;-73
2021/08/01 10:16:50;;;;;;;2.23;2.10;;;20.10;99.90;;;;;;5068151;28;20199;-73
2021/08/01 10:19:19;;;;;;;2.87;2.47;;;20.20;99.90;;;;;;5070931;28;20289;-72
2021/08/01 10:21:50;;;;;;;4.37;3.93;;;20.20;99.90;;;;;;5071817;28;20222;-73
2021/08/01 10:24:20;;;;;;;4.40;4.10;;;20.20;99.90;;;;;;5071904;28;20298;-72
2021/08/01 10:26:47;;;;;;;3.30;3.17;;;20.20;99.90;;;;;;5072511;28;20203;-72
2021/08/01 10:29:21;;;;;;;2.20;2.10;;;20.20;99.90;;;;;;5071728;28;20233;-73
2021/08/01 10:31:51;;;;;;;2.30;2.20;;;20.20;99.90;;;;;;5071891;28;20308;-73
2021/08/01 10:34:27;;;;;;;2.37;2.27;;;20.30;99.90;;;;;;5071727;28;20246;-73
2021/08/01 10:36:57;;;;;;;2.83;2.63;;;20.40;99.90;;;;;;5071498;28;20679;-73
2021/08/01 10:39:29;;;;;;;2.43;2.23;;;20.40;99.90;;;;;;5071356;28;20262;-73
2021/08/01 10:41:57;;;;;;;2.10;2.00;;;20.40;99.90;;;;;;5071616;28;20253;-72
2021/08/01 10:44:24;;;;;;;1.80;1.70;;;20.30;99.90;;;;;;5071727;28;20243;-72
2021/08/01 10:46:51;;;;;;;3.00;2.30;;;20.40;99.90;;;;;;5071450;28;20212;-72
2021/08/01 10:49:19;;;;;;;3.47;2.40;;;20.40;99.90;;;;;;5071251;28;20308;-73
2021/08/01 10:51:46;;;;;;;2.43;2.23;;;20.60;99.90;;;;;;5071538;28;20211;-73
2021/08/01 10:54:32;;;;;;;2.30;2.10;;;20.70;99.90;;;;;;5071292;28;20231;-73
2021/08/01 10:57:19;;;;;;;2.50;2.30;;;20.60;99.90;;;;;;5071328;28;20223;-73
2021/08/01 11:00:13;;;;;;;2.10;2.00;;;20.80;99.90;;;;;;5071139;28;20227;-73
2021/08/01 11:02:39;;;;;;;2.40;2.20;;;20.70;99.90;;;;;;5071020;28;20720;-73
2021/08/01 11:05:35;;;;;;;2.20;2.10;;;20.70;99.90;;;;;;5071129;28;20273;-73
2021/08/01 11:08:03;;;;;;;2.17;2.07;;;20.70;99.90;;;;;;5068858;28;20218;-73
2021/08/01 11:10:32;;;;;;;2.10;2.00;;;20.60;99.90;;;;;;5070475;28;20231;-73
2021/08/01 11:12:59;;;;;;;1.80;1.80;;;20.80;99.90;;;;;;5070783;28;20294;-73
2021/08/01 11:15:46;;;;;;;2.97;2.27;;;20.70;99.90;;;;;;5070738;28;20208;-73
2021/08/01 11:18:13;;;;;;;1.80;1.73;;;20.70;99.90;;;;;;5070695;28;20329;-73
2021/08/01 11:20:49;;;;;;;2.03;1.93;;;20.60;99.90;;;;;;5070785;28;20200;-73
2021/08/01 11:23:16;;;;;;;2.47;2.30;;;20.60;99.90;;;;;;5070701;28;20211;-73
2021/08/01 11:26:05;;;;;;;2.03;1.93;;;20.70;99.90;;;;;;5070760;28;20211;-73
2021/08/01 11:28:34;;;;;;;2.80;2.60;;;20.90;99.90;;;;;;5070576;28;20196;-73
2021/08/01 11:31:19;;;;;;;2.83;2.30;;;21.00;99.90;;;;;;5070609;28;20203;-73
2021/08/01 11:33:47;;;;;;;2.33;2.13;;;21.10;99.90;;;;;;5070382;28;20774;-73
2021/08/01 11:36:28;;;;;;;2.93;2.50;;;21.20;99.90;;;;;;5070352;28;20207;-73
2021/08/01 11:39:05;;;;;;;2.10;2.00;;;21.40;99.90;;;;;;5070578;28;20277;-73
2021/08/01 11:41:39;;;;;;;2.07;1.97;;;21.40;99.90;;;;;;5070381;28;20562;-73
2021/08/01 11:44:14;;;;;;;1.97;1.87;;;21.60;99.90;;;;;;5070453;28;20541;-73
2021/08/01 11:47:02;;;;;;;2.07;1.97;;;21.60;99.90;;;;;;5070357;28;20979;-73
2021/08/01 11:49:31;;;;;;;2.30;2.10;;;21.70;99.90;;;;;;5069891;28;20654;-73
2021/08/01 11:51:59;;;;;;;2.33;2.07;;;21.80;99.90;;;;;;5069856;28;20661;-73
2021/08/01 11:54:27;;;;;;;2.08;1.98;;;21.90;99.90;;;;;;5069786;28;20665;-73
2021/08/01 11:56:58;;;;;;;2.93;2.00;;;22.10;99.90;;;;;;5070150;28;20234;-73
2021/08/01 11:59:26;;;;;;;2.15;2.00;;;22.20;99.90;;;;;;5069951;28;20262;-73
2021/08/01 12:01:54;;;;;;;2.67;1.88;;;22.20;99.90;;;;;;5069778;28;20673;-73
2021/08/01 12:04:21;;;;;;;3.43;3.10;;;22.10;99.90;;;;;;5069858;28;20249;-73
2021/08/01 12:06:47;;;;;;;2.50;2.30;;;22.00;99.90;;;;;;5069889;28;20250;-73
2021/08/01 12:09:18;;;;;;;5.70;5.10;;;22.10;99.90;;;;;;5069559;28;20693;-73
2021/08/01 12:11:45;;;;;;;2.22;2.13;;;22.20;99.90;;;;;;5070007;28;20196;-73
2021/08/01 12:14:14;;;;;;;2.50;2.30;;;22.50;99.90;;;;;;5069684;28;20203;-73
2021/08/01 12:16:52;;;;;;;2.15;1.95;;;22.70;99.90;;;;;;5069976;28;20214;-73
2021/08/01 12:19:22;;;;;;;2.15;2.05;;;22.90;99.90;;;;;;5069670;28;20219;-73
2021/08/01 12:21:51;;;;;;;2.10;2.00;;;22.80;99.90;;;;;;5069754;28;20195;-73
2021/08/01 12:24:33;;;;;;;2.03;1.92;;;22.70;99.90;;;;;;5069547;28;20617;-73
2021/08/01 12:27:02;;;;;;;2.20;2.10;;;22.70;99.90;;;;;;5069362;28;20187;-73
2021/08/01 12:29:35;;;;;;;1.88;1.77;;;22.80;99.90;;;;;;5069521;28;20207;-71
2021/08/01 12:32:17;;;;;;;2.10;2.00;;;23.10;99.90;;;;;;5069502;28;20249;-70
2021/08/01 12:34:44;;;;;;;1.95;1.85;;;23.20;99.90;;;;;;5069037;28;20746;-71
2021/08/01 12:37:11;;;;;;;2.38;2.17;;;23.30;99.90;;;;;;5069068;28;20239;-71
2021/08/01 12:39:44;;;;;;;2.10;2.00;;;23.10;99.20;;;;;;5069184;28;20243;-71
2021/08/01 12:42:11;;;;;;;2.20;2.00;;;23.00;99.70;;;;;;5068620;28;20195;-71
2021/08/01 12:44:49;;;;;;;2.15;2.03;;;22.90;99.90;;;;;;5069007;28;20211;-71
2021/08/01 12:47:16;;;;;;;1.98;1.88;;;22.60;99.90;;;;;;5069103;28;20214;-71
2021/08/01 12:49:43;;;;;;;2.60;2.15;;;22.40;99.90;;;;;;5068817;28;20622;-71
2021/08/01 12:52:10;;;;;;;3.00;2.47;;;22.30;99.90;;;;;;5068960;28;20211;-70
2021/08/01 12:54:37;;;;;;;2.35;2.25;;;22.20;99.60;;;;;;5068771;28;20287;-71
2021/08/01 12:57:05;;;;;;;2.13;1.92;;;22.10;99.90;;;;;;5069144;28;20243;-71